createdAt,value
2022-11-04T00:00:33.317Z,7.60
2022-11-04T00:03:01.478Z,7.60
2022-11-04T00:05:31.078Z,7.70
2022-11-04T00:08:17.265Z,7.70
2022-11-04T00:11:03.062Z,7.60
2022-11-04T00:13:40.436Z,7.60
2022-11-04T00:16:26.458Z,7.60
2022-11-04T00:18:54.971Z,7.70
2022-11-04T00:21:42.045Z,7.70
2022-11-04T00:24:28.924Z,7.70
2022-11-04T00:27:14.719Z,7.80
2022-11-04T00:29:42.955Z,7.80
2022-11-04T00:32:28.731Z,7.70
2022-11-04T00:34:56.834Z,7.70
2022-11-04T00:37:26.476Z,7.70
2022-11-04T00:39:57.560Z,7.80
2022-11-04T00:42:27.691Z,7.70
2022-11-04T00:44:56.226Z,7.70
2022-11-04T00:47:24.378Z,7.70
2022-11-04T00:49:53.369Z,7.70
2022-11-04T00:52:27.788Z,7.80
2022-11-04T00:54:58.729Z,7.80
2022-11-04T00:57:26.799Z,7.90
2022-11-04T00:59:54.944Z,7.70
2022-11-04T01:02:23.635Z,7.70
2022-11-04T01:04:51.886Z,7.70
2022-11-04T01:07:20.204Z,7.60
2022-11-04T01:09:49.754Z,7.70
2022-11-04T01:12:19.348Z,7.60
2022-11-04T01:14:49.857Z,7.60
2022-11-04T01:17:18.184Z,7.60
2022-11-04T01:19:47.772Z,7.70
2022-11-04T01:22:18.443Z,7.70
2022-11-04T01:24:46.572Z,7.70
2022-11-04T01:27:14.601Z,7.60
2022-11-04T01:29:44.201Z,7.60
2022-11-04T01:32:12.249Z,7.60
2022-11-04T01:34:43.346Z,7.60
2022-11-04T01:37:12.181Z,7.50
2022-11-04T01:39:40.301Z,7.60
2022-11-04T01:42:08.957Z,7.60
2022-11-04T01:44:52.338Z,7.60
2022-11-04T01:47:21.441Z,7.70
2022-11-04T01:49:51.604Z,7.80
2022-11-04T01:52:22.699Z,7.80
2022-11-04T01:54:54.131Z,7.90
2022-11-04T01:57:29.179Z,7.90
2022-11-04T02:00:00.012Z,7.90
2022-11-04T02:02:28.590Z,7.90
2022-11-04T02:04:57.229Z,7.90
2022-11-04T02:07:25.581Z,7.90
2022-11-04T02:09:53.897Z,8.00
2022-11-04T02:12:39.643Z,8.00
2022-11-04T02:15:11.671Z,8.00
2022-11-04T02:17:47.677Z,8.00
2022-11-04T02:20:33.400Z,8.00
2022-11-04T02:23:15.901Z,8.00
2022-11-04T02:25:55.760Z,8.00
2022-11-04T02:28:38.916Z,7.90
2022-11-04T02:31:14.053Z,7.90
2022-11-04T02:33:49.012Z,7.80
2022-11-04T02:36:22.506Z,7.80
2022-11-04T02:38:53.228Z,7.70
2022-11-04T02:41:25.237Z,7.70
2022-11-04T02:43:59.618Z,7.70
2022-11-04T02:46:33.487Z,7.70
2022-11-04T02:49:07.241Z,7.70
2022-11-04T02:51:37.877Z,7.70
2022-11-04T02:54:08.510Z,7.60
2022-11-04T02:56:40.718Z,7.70
2022-11-04T02:59:13.304Z,7.60
2022-11-04T03:01:43.579Z,7.60
2022-11-04T03:04:13.324Z,7.60
2022-11-04T03:06:42.504Z,7.60
2022-11-04T03:09:12.511Z,7.60
2022-11-04T03:11:42.964Z,7.70
2022-11-04T03:14:15.325Z,7.70
2022-11-04T03:16:47.336Z,7.60
2022-11-04T03:19:17.517Z,7.60
2022-11-04T03:21:51.554Z,7.60
2022-11-04T03:24:19.933Z,7.60
2022-11-04T03:26:50.567Z,7.70
2022-11-04T03:29:24.657Z,7.70
2022-11-04T03:31:58.430Z,7.60
2022-11-04T03:34:26.549Z,7.60
2022-11-04T03:36:57.675Z,7.60
2022-11-04T03:39:28.759Z,7.50
2022-11-04T03:41:58.420Z,7.70
2022-11-04T03:44:26.620Z,7.60
2022-11-04T03:46:58.880Z,7.50
2022-11-04T03:49:27.433Z,7.60
2022-11-04T03:51:55.509Z,7.60
2022-11-04T03:54:23.799Z,7.60
2022-11-04T03:57:01.074Z,7.60
2022-11-04T03:59:46.967Z,7.60
2022-11-04T04:02:18.846Z,7.60
2022-11-04T04:04:53.448Z,7.60
2022-11-04T04:07:27.992Z,7.60
2022-11-04T04:09:57.561Z,7.60
2022-11-04T04:12:28.504Z,7.50
2022-11-04T04:14:59.500Z,7.50
2022-11-04T04:17:31.693Z,7.50
2022-11-04T04:20:01.298Z,7.40
2022-11-04T04:22:31.206Z,7.50
2022-11-04T04:25:21.736Z,7.50
2022-11-04T04:27:50.512Z,7.40
2022-11-04T04:30:18.795Z,7.50
2022-11-04T04:32:49.784Z,7.40
2022-11-04T04:35:35.563Z,7.50
2022-11-04T04:38:19.931Z,7.40
2022-11-04T04:41:07.675Z,7.40
2022-11-04T04:44:00.905Z,7.40
2022-11-04T04:46:29.872Z,7.40
2022-11-04T04:49:07.288Z,7.40
2022-11-04T04:51:36.132Z,7.40
2022-11-04T04:54:04.463Z,7.30
2022-11-04T04:56:32.519Z,7.30
2022-11-04T04:59:00.674Z,7.40
2022-11-04T05:01:29.084Z,7.40
2022-11-04T05:03:57.457Z,7.40
2022-11-04T05:06:26.929Z,7.30
2022-11-04T05:08:55.241Z,7.30
2022-11-04T05:11:24.575Z,7.30
2022-11-04T05:13:54.418Z,7.30
2022-11-04T05:16:22.749Z,7.30
2022-11-04T05:18:52.555Z,7.30
2022-11-04T05:21:20.649Z,7.30
2022-11-04T05:23:50.221Z,7.30
2022-11-04T05:26:18.265Z,7.30
2022-11-04T05:28:46.596Z,7.40
2022-11-04T05:31:14.792Z,7.50
2022-11-04T05:33:44.467Z,7.50
2022-11-04T05:36:13.632Z,7.50
2022-11-04T05:38:42.352Z,7.60
2022-11-04T05:41:25.970Z,7.50
2022-11-04T05:43:54.389Z,7.50
2022-11-04T05:46:22.582Z,7.50
2022-11-04T05:48:50.750Z,7.70
2022-11-04T05:51:19.936Z,7.60
2022-11-04T05:53:48.021Z,7.70
2022-11-04T05:56:17.784Z,7.80
2022-11-04T05:58:46.096Z,7.70
2022-11-04T06:01:15.895Z,7.80
2022-11-04T06:03:44.084Z,7.80
2022-11-04T06:06:12.367Z,7.80
2022-11-04T06:08:44.974Z,7.80
2022-11-04T06:11:13.356Z,7.80
2022-11-04T06:13:43.027Z,7.80
2022-11-04T06:16:11.138Z,7.80
2022-11-04T06:18:39.543Z,7.80
2022-11-04T06:21:09.161Z,7.90
2022-11-04T06:23:37.248Z,7.80
2022-11-04T06:26:05.848Z,7.90
2022-11-04T06:28:34.032Z,7.80
2022-11-04T06:31:07.396Z,7.80
2022-11-04T06:33:36.980Z,7.80
2022-11-04T06:36:05.964Z,7.90
2022-11-04T06:38:35.120Z,7.90
2022-11-04T06:43:34.228Z,7.90
2022-11-04T06:46:03.265Z,7.80
2022-11-04T06:48:32.938Z,7.90
2022-11-04T06:51:01.414Z,7.90
2022-11-04T06:53:30.363Z,7.90
2022-11-04T06:56:06.234Z,7.90
2022-11-04T06:58:34.320Z,7.90
2022-11-04T07:01:14.688Z,8.00
2022-11-04T07:03:45.608Z,7.90
2022-11-04T07:06:13.913Z,7.90
2022-11-04T07:08:42.172Z,7.90
2022-11-04T07:11:10.255Z,7.90
2022-11-04T07:13:38.514Z,7.90
2022-11-04T07:16:07.426Z,8.00
2022-11-04T07:18:35.778Z,8.00
2022-11-04T07:21:09.957Z,8.00
2022-11-04T07:23:38.731Z,8.10
2022-11-04T07:26:10.098Z,8.10
2022-11-04T07:28:38.918Z,8.20
2022-11-04T07:31:09.569Z,8.10
2022-11-04T07:33:37.768Z,8.20
2022-11-04T07:36:07.871Z,8.20
2022-11-04T07:38:37.726Z,8.30
2022-11-04T07:41:08.749Z,8.30
2022-11-04T07:43:36.941Z,8.30
2022-11-04T07:46:06.142Z,8.40
2022-11-04T07:48:34.272Z,8.40
2022-11-04T07:51:06.477Z,8.50
2022-11-04T07:53:37.987Z,8.50
2022-11-04T07:56:07.396Z,8.50
2022-11-04T07:58:36.041Z,8.50
2022-11-04T08:01:05.704Z,8.50
2022-11-04T08:03:34.452Z,8.60
2022-11-04T08:06:03.251Z,8.60
2022-11-04T08:08:31.362Z,8.60
2022-11-04T08:11:02.132Z,8.60
2022-11-04T08:13:30.825Z,8.60
2022-11-04T08:16:04.955Z,8.60
2022-11-04T08:18:33.560Z,8.60
2022-11-04T08:21:02.565Z,8.70
2022-11-04T08:23:30.727Z,8.60
2022-11-04T08:26:00.356Z,8.70
2022-11-04T08:28:29.930Z,8.70
2022-11-04T08:30:58.813Z,8.80
2022-11-04T08:33:28.089Z,8.80
2022-11-04T08:35:56.692Z,8.80
2022-11-04T08:38:25.501Z,8.80
2022-11-04T08:40:59.469Z,8.90
2022-11-04T08:43:29.557Z,8.90
2022-11-04T08:45:57.646Z,9.00
2022-11-04T08:48:25.930Z,9.00
2022-11-04T08:50:55.312Z,9.00
2022-11-04T08:53:25.317Z,9.10
2022-11-04T08:55:53.512Z,9.10
2022-11-04T08:58:22.063Z,9.20
2022-11-04T09:00:51.658Z,9.10
2022-11-04T09:03:20.172Z,9.20
2022-11-04T09:05:49.317Z,9.20
2022-11-04T09:08:18.394Z,9.30
2022-11-04T09:10:47.132Z,9.40
2022-11-04T09:13:16.077Z,9.40
2022-11-04T09:15:44.627Z,9.50
2022-11-04T09:18:14.145Z,9.50
2022-11-04T09:20:42.790Z,9.50
2022-11-04T09:23:11.177Z,9.50
2022-11-04T09:25:39.543Z,9.50
2022-11-04T09:28:10.441Z,9.50
2022-11-04T09:30:38.605Z,9.60
2022-11-04T09:33:07.013Z,9.60
2022-11-04T09:35:36.755Z,9.70
2022-11-04T09:38:05.088Z,9.70
2022-11-04T09:40:35.341Z,9.70
2022-11-04T09:43:12.045Z,9.70
2022-11-04T09:45:41.432Z,9.70
2022-11-04T09:48:12.701Z,9.70
2022-11-04T09:50:46.171Z,9.70
2022-11-04T09:53:17.937Z,9.70
2022-11-04T09:55:50.780Z,9.70
2022-11-04T09:58:19.061Z,9.80
2022-11-04T10:00:50.479Z,9.80
2022-11-04T10:03:23.832Z,9.90
2022-11-04T10:06:01.561Z,9.80
2022-11-04T10:08:38.167Z,9.90
2022-11-04T10:11:10.597Z,9.90
2022-11-04T10:13:47.460Z,9.90
2022-11-04T10:16:20.263Z,9.90
2022-11-04T10:19:03.636Z,9.90
2022-11-04T10:21:38.866Z,9.90
2022-11-04T10:24:09.556Z,9.90
2022-11-04T10:26:41.353Z,9.90
2022-11-04T10:29:13.701Z,9.90
2022-11-04T10:31:42.504Z,9.90
2022-11-04T10:34:16.044Z,9.90
2022-11-04T10:36:48.589Z,9.90
2022-11-04T10:39:19.712Z,9.80
2022-11-04T10:41:50.539Z,9.90
2022-11-04T10:44:21.616Z,10.00
2022-11-04T10:46:53.627Z,10.00
2022-11-04T10:49:36.550Z,10.00
2022-11-04T10:52:06.713Z,10.00
2022-11-04T10:54:37.723Z,10.00
2022-11-04T10:57:07.788Z,9.90
2022-11-04T10:59:43.588Z,9.90
2022-11-04T11:02:11.965Z,9.90
2022-11-04T11:04:41.465Z,9.90
2022-11-04T11:07:18.352Z,9.90
2022-11-04T11:09:54.039Z,9.90
2022-11-04T11:15:26.384Z,9.90
2022-11-04T11:17:58.641Z,9.90
2022-11-04T11:20:27.339Z,9.90
2022-11-04T11:23:04.670Z,9.80
2022-11-04T11:25:33.415Z,9.80
2022-11-04T11:28:06.197Z,9.70
2022-11-04T11:30:45.198Z,9.70
2022-11-04T11:33:18.684Z,9.70
2022-11-04T11:35:51.706Z,9.70
2022-11-04T11:38:23.537Z,9.60
2022-11-04T11:41:23.283Z,9.60
2022-11-04T11:43:45.622Z,9.70
2022-11-04T11:46:14.248Z,9.70
2022-11-04T11:48:43.603Z,9.70
2022-11-04T11:51:18.172Z,9.70
2022-11-04T11:54:04.000Z,9.80
2022-11-04T11:56:58.746Z,9.80
2022-11-04T12:02:22.238Z,9.90
2022-11-04T12:10:56.379Z,9.80
2022-11-04T12:13:28.786Z,9.70
2022-11-04T12:16:11.857Z,9.70
2022-11-04T12:18:44.151Z,9.70
2022-11-04T12:21:20.142Z,9.60
2022-11-04T12:23:53.883Z,9.60
2022-11-04T12:26:29.212Z,9.60
2022-11-04T12:29:21.549Z,9.60
2022-11-04T12:31:53.175Z,9.70
2022-11-04T12:34:29.864Z,9.60
2022-11-04T12:37:05.515Z,9.70
2022-11-04T12:39:41.828Z,9.70
2022-11-04T12:42:21.209Z,9.60
2022-11-04T12:44:54.026Z,9.60
2022-11-04T12:47:27.958Z,9.50
2022-11-04T12:49:58.959Z,9.50
2022-11-04T12:52:35.733Z,9.50
2022-11-04T12:55:08.630Z,9.50
2022-11-04T12:57:42.643Z,9.50
2022-11-04T13:00:12.643Z,9.50
2022-11-04T13:02:45.256Z,9.40
2022-11-04T13:05:23.848Z,9.40
2022-11-04T13:07:55.448Z,9.50
2022-11-04T13:10:25.492Z,9.40
2022-11-04T13:12:58.364Z,9.40
2022-11-04T13:15:28.712Z,9.30
2022-11-04T13:18:04.748Z,9.30
2022-11-04T13:20:35.725Z,9.30
2022-11-04T13:23:05.811Z,9.20
2022-11-04T13:25:38.436Z,9.20
2022-11-04T13:28:12.457Z,9.20
2022-11-04T13:30:55.951Z,9.20
2022-11-04T13:33:29.546Z,9.10
2022-11-04T13:36:00.006Z,9.10
2022-11-04T13:38:31.497Z,9.20
2022-11-04T13:41:08.863Z,9.10
2022-11-04T13:43:43.291Z,9.10
2022-11-04T13:46:19.905Z,9.10
2022-11-04T13:48:54.490Z,9.00
2022-11-04T13:51:23.445Z,9.00
2022-11-04T13:53:52.756Z,9.00
2022-11-04T13:56:34.803Z,9.00
2022-11-04T13:59:19.821Z,8.90
2022-11-04T14:01:48.824Z,8.90
2022-11-04T14:04:37.044Z,9.00
2022-11-04T14:07:05.845Z,8.90
2022-11-04T14:09:36.863Z,8.90
2022-11-04T14:12:23.803Z,8.90
2022-11-04T14:14:54.247Z,8.90
2022-11-04T14:17:41.700Z,8.90
2022-11-04T14:20:12.153Z,8.90
2022-11-04T14:22:49.535Z,8.80
2022-11-04T14:25:26.135Z,8.90
2022-11-04T14:27:55.132Z,8.90
2022-11-04T14:30:46.068Z,8.80
2022-11-04T14:33:37.964Z,8.90
2022-11-04T14:36:17.205Z,8.80
2022-11-04T14:38:45.962Z,8.80
2022-11-04T14:41:15.721Z,8.80
2022-11-04T14:43:46.981Z,8.70
2022-11-04T14:46:22.683Z,8.70
2022-11-04T14:48:54.491Z,8.60
2022-11-04T14:51:26.147Z,8.60
2022-11-04T14:53:55.412Z,8.60
2022-11-04T14:56:24.780Z,8.60
2022-11-04T14:58:55.808Z,8.60
2022-11-04T15:01:29.852Z,8.60
2022-11-04T15:04:12.124Z,8.60
2022-11-04T15:06:54.333Z,8.50
2022-11-04T15:09:24.694Z,8.50
2022-11-04T15:12:11.151Z,8.50
2022-11-04T15:14:39.529Z,8.50
2022-11-04T15:17:12.906Z,8.40
2022-11-04T15:19:41.190Z,8.40
2022-11-04T15:22:10.531Z,8.40
2022-11-04T15:24:38.635Z,8.40
2022-11-04T15:27:08.004Z,8.40
2022-11-04T15:29:36.381Z,8.40
2022-11-04T15:32:05.962Z,8.40
2022-11-04T15:34:37.167Z,8.40
2022-11-04T15:37:06.624Z,8.40
2022-11-04T15:39:36.179Z,8.40
2022-11-04T15:42:23.925Z,8.30
2022-11-04T15:44:54.212Z,8.40
2022-11-04T15:47:23.777Z,8.30
2022-11-04T15:49:56.257Z,8.20
2022-11-04T15:52:27.390Z,8.30
2022-11-04T15:54:58.013Z,8.40
2022-11-04T15:57:29.069Z,8.30
2022-11-04T15:59:59.336Z,8.40
2022-11-04T16:02:29.203Z,8.40
2022-11-04T16:05:06.530Z,8.30
2022-11-04T16:07:36.972Z,8.30
2022-11-04T16:10:24.537Z,8.30
2022-11-04T16:12:55.745Z,8.30
2022-11-04T16:15:36.930Z,8.40
2022-11-04T16:18:06.167Z,8.30
2022-11-04T16:20:37.114Z,8.40
2022-11-04T16:23:05.320Z,8.50
2022-11-04T16:25:35.344Z,8.50
2022-11-04T16:28:03.912Z,8.50
2022-11-04T16:30:34.959Z,8.50
2022-11-04T16:33:12.136Z,8.50
2022-11-04T16:35:43.255Z,8.50
2022-11-04T16:38:11.778Z,8.50
2022-11-04T16:40:39.951Z,8.50
2022-11-04T16:43:08.462Z,8.50
2022-11-04T16:45:38.230Z,8.50
2022-11-04T16:48:08.959Z,8.60
2022-11-04T16:50:40.264Z,8.50
2022-11-04T16:53:10.055Z,8.50
2022-11-04T16:55:40.919Z,8.50
2022-11-04T16:58:09.019Z,8.50
2022-11-04T17:00:37.197Z,8.50
2022-11-04T17:03:13.874Z,8.60
2022-11-04T17:05:41.950Z,8.70
2022-11-04T17:08:13.469Z,8.60
2022-11-04T17:10:42.881Z,8.60
2022-11-04T17:13:14.084Z,8.60
2022-11-04T17:15:43.059Z,8.60
2022-11-04T17:18:11.393Z,8.60
2022-11-04T17:20:40.867Z,8.60
2022-11-04T17:23:10.290Z,8.60
2022-11-04T17:25:40.059Z,8.50
2022-11-04T17:28:08.394Z,8.60
2022-11-04T17:30:36.460Z,8.60
2022-11-04T17:33:06.753Z,8.70
2022-11-04T17:35:35.355Z,8.60
2022-11-04T17:38:03.418Z,8.70
2022-11-04T17:40:31.816Z,8.70
2022-11-04T17:43:19.277Z,8.70
2022-11-04T17:46:07.913Z,8.70
2022-11-04T17:48:36.182Z,8.70
2022-11-04T17:51:10.670Z,8.70
2022-11-04T17:53:40.719Z,8.70
2022-11-04T17:56:14.774Z,8.80
2022-11-04T17:58:44.389Z,8.80
2022-11-04T18:01:13.778Z,8.80
2022-11-04T18:03:42.672Z,8.80
2022-11-04T18:06:11.813Z,8.80
2022-11-04T18:08:39.966Z,8.80
2022-11-04T18:11:09.254Z,8.80
2022-11-04T18:13:36.277Z,8.70
2022-11-04T18:16:12.700Z,8.70
2022-11-04T18:18:46.130Z,8.80
2022-11-04T18:21:21.270Z,8.70
2022-11-04T18:23:49.395Z,8.70
2022-11-04T18:26:17.446Z,8.70
2022-11-04T18:28:45.928Z,8.70
2022-11-04T18:31:20.774Z,8.70
2022-11-04T18:33:53.735Z,8.80
2022-11-04T18:36:21.845Z,8.80
2022-11-04T18:38:49.928Z,8.90
2022-11-04T18:41:18.099Z,8.90
2022-11-04T18:43:46.406Z,8.90
2022-11-04T18:46:16.821Z,8.90
2022-11-04T18:48:48.534Z,8.90
2022-11-04T18:51:16.658Z,8.90
2022-11-04T18:53:47.894Z,9.00
2022-11-04T18:56:17.287Z,9.00
2022-11-04T18:58:49.752Z,9.00
2022-11-04T19:01:23.754Z,9.00
2022-11-04T19:03:55.752Z,9.10
2022-11-04T19:06:26.316Z,9.10
2022-11-04T19:08:59.572Z,9.10
2022-11-04T19:11:32.066Z,9.10
2022-11-04T19:14:09.690Z,9.20
2022-11-04T19:16:49.700Z,9.10
2022-11-04T19:19:17.985Z,9.10
2022-11-04T19:21:51.217Z,9.10
2022-11-04T19:24:24.447Z,9.10
2022-11-04T19:26:53.405Z,9.10
2022-11-04T19:29:26.446Z,9.10
2022-11-04T19:31:58.385Z,9.10
2022-11-04T19:34:29.263Z,9.10
2022-11-04T19:36:57.521Z,9.10
2022-11-04T19:39:26.109Z,9.10
2022-11-04T19:42:11.901Z,9.00
2022-11-04T19:44:40.343Z,9.00
2022-11-04T19:47:10.752Z,9.10
2022-11-04T19:49:40.610Z,9.10
2022-11-04T19:52:10.976Z,9.10
2022-11-04T19:54:39.116Z,9.10
2022-11-04T19:57:08.425Z,9.10
2022-11-04T19:59:41.548Z,9.00
2022-11-04T20:02:14.567Z,9.00
2022-11-04T20:04:42.747Z,9.00
2022-11-04T20:07:10.893Z,9.00
2022-11-04T20:09:39.703Z,9.00
2022-11-04T20:12:25.379Z,9.00
2022-11-04T20:14:55.559Z,9.10
2022-11-04T20:17:28.556Z,9.10
2022-11-04T20:19:56.908Z,9.10
2022-11-04T20:22:25.110Z,9.10
2022-11-04T20:24:53.299Z,9.10
2022-11-04T20:27:21.399Z,9.10
2022-11-04T20:29:49.606Z,9.10
2022-11-04T20:32:19.867Z,9.10
2022-11-04T20:34:50.218Z,9.00
2022-11-04T20:37:18.343Z,9.00
2022-11-04T20:39:48.616Z,9.00
2022-11-04T20:42:18.887Z,9.00
2022-11-04T20:44:47.074Z,9.10
2022-11-04T20:47:16.496Z,9.10
2022-11-04T20:49:44.706Z,9.20
2022-11-04T20:52:16.977Z,9.10
2022-11-04T20:54:45.095Z,9.10
2022-11-04T20:57:13.171Z,9.10
2022-11-04T20:59:41.307Z,9.10
2022-11-04T21:02:12.030Z,9.00
2022-11-04T21:04:40.877Z,9.00
2022-11-04T21:07:09.171Z,9.00
2022-11-04T21:09:38.624Z,9.00
2022-11-04T21:12:09.929Z,9.00
2022-11-04T21:14:38.176Z,9.00
2022-11-04T21:17:08.974Z,9.00
2022-11-04T21:19:37.143Z,9.00
2022-11-04T21:22:07.318Z,8.90
2022-11-04T21:24:39.142Z,8.90
2022-11-04T21:27:09.239Z,8.90
2022-11-04T21:29:37.634Z,8.90
2022-11-04T21:32:06.031Z,8.90
2022-11-04T21:34:45.371Z,8.90
2022-11-04T21:37:19.111Z,8.90
2022-11-04T21:39:47.322Z,9.00
2022-11-04T21:42:16.835Z,9.00
2022-11-04T21:44:44.922Z,9.00
2022-11-04T21:47:12.995Z,8.90
2022-11-04T21:49:42.527Z,9.00
2022-11-04T21:52:12.376Z,9.00
2022-11-04T21:54:40.492Z,9.00
2022-11-04T21:57:12.388Z,9.00
2022-11-04T21:59:42.077Z,9.10
2022-11-04T22:02:10.880Z,9.10
2022-11-04T22:04:39.090Z,9.10
2022-11-04T22:07:07.628Z,9.10
2022-11-04T22:09:35.727Z,9.10
2022-11-04T22:12:05.491Z,9.10
2022-11-04T22:14:33.842Z,9.10
2022-11-04T22:17:03.392Z,9.10
2022-11-04T22:19:31.451Z,9.10
2022-11-04T22:22:01.263Z,9.20
2022-11-04T22:24:29.439Z,9.20
2022-11-04T22:26:57.523Z,9.20
2022-11-04T22:29:27.120Z,9.20
2022-11-04T22:31:56.667Z,9.20
2022-11-04T22:34:28.530Z,9.30
2022-11-04T22:36:58.149Z,9.30
2022-11-04T22:39:26.302Z,9.20
2022-11-04T22:41:54.357Z,9.20
2022-11-04T22:44:22.577Z,9.30
2022-11-04T22:46:50.676Z,9.20
2022-11-04T22:49:18.898Z,9.20
2022-11-04T22:51:48.673Z,9.20
2022-11-04T22:54:17.603Z,9.20
2022-11-04T22:56:45.732Z,9.30
2022-11-04T22:59:14.276Z,9.30
2022-11-04T23:01:42.574Z,9.30
2022-11-04T23:04:12.531Z,9.30
2022-11-04T23:06:41.065Z,9.30
2022-11-04T23:09:14.005Z,9.40
2022-11-04T23:12:07.978Z,9.40
2022-11-04T23:14:55.868Z,9.30
2022-11-04T23:17:42.727Z,9.30
2022-11-04T23:20:12.451Z,9.30
2022-11-04T23:22:58.067Z,9.30
2022-11-04T23:25:28.034Z,9.20
2022-11-04T23:28:14.495Z,9.20
2022-11-04T23:30:44.146Z,9.20
2022-11-04T23:33:13.467Z,9.20
2022-11-04T23:35:59.739Z,9.20
2022-11-04T23:38:29.501Z,9.20
2022-11-04T23:41:17.472Z,9.20
2022-11-04T23:43:45.900Z,9.20
2022-11-04T23:46:31.431Z,9.10
2022-11-04T23:49:22.651Z,9.10
2022-11-04T23:52:10.520Z,9.00
2022-11-04T23:54:56.174Z,8.90
2022-11-04T23:57:43.317Z,8.90
